Time;durP1;ratioP1;P1;durP2;ratioP2;P2;SDS_P1;SDS_P2;PMS_P1;PMS_P2;Temp;Humidity;BMP_temperature;BMP_pressure;BME280_temperature;BME280_humidity;BME280_pressure;Samples;Min_cycle;Max_cycle;Signal;HPM_P1;HPM_P2
2023/05/19 00:00:33;;;;;;;5.10;4.53;;;14.70;91.30;;;;;;10488750;28;20619;-82
2023/05/19 00:05:39;;;;;;;6.20;4.63;;;14.60;90.60;;;;;;10470109;28;20224;-77
2023/05/19 00:10:42;;;;;;;5.73;4.27;;;14.60;91.60;;;;;;10492645;28;20762;-80
2023/05/19 00:15:46;;;;;;;5.90;4.30;;;14.50;92.00;;;;;;10478059;28;20260;-80
2023/05/19 00:20:50;;;;;;;5.53;4.33;;;14.40;92.00;;;;;;10500515;28;20202;-82
2023/05/19 00:25:52;;;;;;;5.97;4.33;;;14.40;91.70;;;;;;10476158;28;20307;-79
2023/05/19 00:30:56;;;;;;;5.30;4.70;;;14.30;92.50;;;;;;10481565;28;20218;-80
2023/05/19 00:35:58;;;;;;;4.93;4.47;;;14.30;92.50;;;;;;10455400;28;20270;-79
2023/05/19 00:41:00;;;;;;;5.43;4.53;;;14.30;92.00;;;;;;10486681;28;20720;-79
2023/05/19 00:46:04;;;;;;;4.90;4.20;;;14.30;91.60;;;;;;10476672;28;20225;-78
2023/05/19 00:51:06;;;;;;;5.00;4.40;;;14.20;92.30;;;;;;10485871;28;20225;-79
2023/05/19 00:56:08;;;;;;;4.53;4.13;;;14.10;92.40;;;;;;10464355;28;20218;-80
2023/05/19 01:01:13;;;;;;;7.97;4.77;;;14.10;92.30;;;;;;10453682;28;20202;-78
2023/05/19 01:06:17;;;;;;;6.60;4.73;;;14.10;92.30;;;;;;10480707;28;20218;-82
2023/05/19 01:11:20;;;;;;;5.93;4.43;;;14.10;91.90;;;;;;10481733;28;20244;-82
2023/05/19 01:16:29;;;;;;;4.20;3.83;;;14.00;92.80;;;;;;10480299;28;20213;-78
2023/05/19 01:22:00;;;;;;;4.30;3.90;;;14.00;92.60;;;;;;10464350;28;20270;-80
2023/05/19 01:27:23;;;;;;;5.53;4.50;;;14.00;92.10;;;;;;10480441;28;20221;-80
2023/05/19 01:32:29;;;;;;;8.40;4.90;;;14.00;92.80;;;;;;10437432;28;20218;-79
2023/05/19 01:37:31;;;;;;;5.73;5.20;;;13.90;93.00;;;;;;10465325;28;20631;-80
2023/05/19 01:42:36;;;;;;;6.20;4.57;;;13.90;92.50;;;;;;10459220;28;20214;-80
2023/05/19 01:47:46;;;;;;;6.40;4.40;;;13.90;93.50;;;;;;10504258;28;20197;-79
2023/05/19 01:52:48;;;;;;;5.67;5.00;;;13.90;93.10;;;;;;10499328;28;20213;-79
2023/05/19 01:58:00;;;;;;;5.70;4.57;;;13.90;93.40;;;;;;10478991;28;20193;-79
2023/05/19 02:03:14;;;;;;;5.13;4.73;;;13.90;93.70;;;;;;10478297;28;20217;-81
2023/05/19 02:08:23;;;;;;;5.00;4.37;;;13.90;93.20;;;;;;10516099;28;20236;-79
2023/05/19 02:13:31;;;;;;;6.40;4.83;;;13.90;93.00;;;;;;10471714;28;20707;-82
2023/05/19 02:18:35;;;;;;;6.50;4.37;;;13.90;93.40;;;;;;10492213;28;20289;-82
2023/05/19 02:23:37;;;;;;;8.03;4.70;;;13.90;93.50;;;;;;10502765;28;20266;-80
2023/05/19 02:28:39;;;;;;;4.77;4.27;;;13.90;93.60;;;;;;10478720;28;20284;-80
2023/05/19 02:33:42;;;;;;;5.03;4.53;;;13.90;93.50;;;;;;10484167;28;20220;-80
2023/05/19 02:38:44;;;;;;;11.60;5.17;;;13.80;93.00;;;;;;10522464;28;20560;-82
2023/05/19 02:43:46;;;;;;;5.10;4.20;;;13.90;93.00;;;;;;10531202;28;20277;-82
2023/05/19 02:48:50;;;;;;;5.20;4.43;;;13.90;93.50;;;;;;10517765;28;20253;-82
2023/05/19 02:53:52;;;;;;;7.07;4.87;;;13.90;92.40;;;;;;10520409;28;20262;-82
2023/05/19 02:58:55;;;;;;;5.93;4.63;;;13.90;92.30;;;;;;10529020;28;20566;-82
2023/05/19 03:03:58;;;;;;;4.93;4.23;;;13.90;92.30;;;;;;10502440;28;20693;-82
2023/05/19 03:09:01;;;;;;;4.97;4.50;;;13.90;92.70;;;;;;10487929;28;20205;-79
2023/05/19 03:14:03;;;;;;;8.83;4.23;;;13.90;92.80;;;;;;10494493;28;20216;-81
2023/05/19 03:19:07;;;;;;;5.10;4.30;;;13.90;92.70;;;;;;10504331;28;20296;-81
2023/05/19 03:24:09;;;;;;;9.30;4.80;;;13.90;92.90;;;;;;10519930;28;20248;-79
2023/05/19 03:29:11;;;;;;;6.80;4.67;;;13.90;92.80;;;;;;10507991;28;20245;-80
2023/05/19 03:34:15;;;;;;;5.20;4.57;;;13.90;92.20;;;;;;10522555;28;20217;-80
2023/05/19 03:39:17;;;;;;;5.13;4.63;;;13.90;92.00;;;;;;10516932;28;20288;-80
2023/05/19 03:44:21;;;;;;;5.53;4.93;;;13.80;93.10;;;;;;10519258;22;20213;-84
2023/05/19 03:49:24;;;;;;;4.50;4.10;;;13.80;93.20;;;;;;10474535;28;20217;-83
2023/05/19 03:54:33;;;;;;;4.90;4.40;;;13.70;93.50;;;;;;10463064;28;20213;-84
2023/05/19 03:59:36;;;;;;;7.20;4.00;;;13.50;93.10;;;;;;10429019;28;20615;-83
2023/05/19 04:04:40;;;;;;;4.40;3.80;;;13.50;93.80;;;;;;10424569;28;20221;-86
2023/05/19 04:09:43;;;;;;;5.37;5.00;;;13.40;93.90;;;;;;10421697;28;20237;-86
2023/05/19 04:14:45;;;;;;;6.40;3.90;;;13.30;93.90;;;;;;10441460;28;20233;-83
2023/05/19 04:19:49;;;;;;;6.87;4.70;;;13.30;94.20;;;;;;10401483;28;20197;-84
2023/05/19 04:24:52;;;;;;;4.07;3.63;;;13.30;93.90;;;;;;10403122;28;20213;-83
2023/05/19 04:29:54;;;;;;;4.80;4.40;;;13.30;94.30;;;;;;10423021;28;20210;-84
2023/05/19 04:34:58;;;;;;;5.00;4.60;;;13.20;94.30;;;;;;10432309;28;20308;-84
2023/05/19 04:40:04;;;;;;;5.20;4.70;;;13.30;94.40;;;;;;10451657;28;20198;-84
2023/05/19 04:45:07;;;;;;;6.60;5.10;;;13.30;94.50;;;;;;10441964;28;20316;-84
2023/05/19 04:50:17;;;;;;;4.63;3.97;;;13.30;94.00;;;;;;10438609;28;20583;-85
2023/05/19 04:55:19;;;;;;;6.93;4.43;;;13.40;93.90;;;;;;10459064;28;20230;-84
2023/05/19 05:00:24;;;;;;;5.70;4.17;;;13.40;92.10;;;;;;10461012;28;20550;-84
2023/05/19 05:05:35;;;;;;;4.27;3.70;;;13.50;92.50;;;;;;10428346;28;20253;-84
2023/05/19 05:10:37;;;;;;;4.30;3.90;;;13.50;93.90;;;;;;10452396;28;20265;-84
2023/05/19 05:15:41;;;;;;;5.67;3.60;;;13.60;93.60;;;;;;10425257;28;20234;-85
2023/05/19 05:20:47;;;;;;;5.23;4.73;;;13.70;93.50;;;;;;10411176;28;20197;-84
2023/05/19 05:25:50;;;;;;;6.57;4.17;;;13.80;93.50;;;;;;10446570;28;20221;-84
2023/05/19 05:30:55;;;;;;;5.87;4.40;;;13.90;93.10;;;;;;10445409;28;20309;-83
2023/05/19 05:35:58;;;;;;;12.43;4.97;;;14.00;94.10;;;;;;10421802;28;20306;-84
2023/05/19 05:41:02;;;;;;;5.10;4.60;;;14.10;92.90;;;;;;10435658;28;20214;-85
2023/05/19 05:46:05;;;;;;;6.73;4.10;;;14.20;93.30;;;;;;10420617;28;20771;-85
2023/05/19 05:51:09;;;;;;;4.77;4.37;;;14.30;93.50;;;;;;10453991;28;20213;-85
2023/05/19 05:56:13;;;;;;;5.47;4.33;;;14.30;93.20;;;;;;10418024;28;20228;-85
2023/05/19 06:01:24;;;;;;;6.90;4.70;;;14.30;92.60;;;;;;10418729;28;20244;-85
2023/05/19 06:06:30;;;;;;;4.50;3.90;;;14.30;93.10;;;;;;10420267;28;20218;-84
2023/05/19 06:11:32;;;;;;;4.73;4.00;;;14.30;93.20;;;;;;10422385;28;20217;-84
2023/05/19 06:16:35;;;;;;;6.00;4.70;;;14.40;91.90;;;;;;10421910;28;20221;-84
2023/05/19 06:21:38;;;;;;;4.87;4.33;;;14.50;94.00;;;;;;10421970;28;20252;-84
2023/05/19 06:26:41;;;;;;;6.23;3.60;;;14.90;93.80;;;;;;10419275;28;20255;-85
2023/05/19 06:31:43;;;;;;;4.57;4.10;;;15.10;92.90;;;;;;10410772;28;20230;-85
2023/05/19 06:36:49;;;;;;;9.63;4.97;;;15.30;93.20;;;;;;10419820;28;20288;-84
2023/05/19 06:41:54;;;;;;;5.77;4.10;;;15.40;92.90;;;;;;10427315;28;20206;-84
2023/05/19 06:47:19;;;;;;;4.53;3.70;;;15.50;92.70;;;;;;10447444;28;20290;-85
2023/05/19 06:52:25;;;;;;;4.37;3.97;;;15.60;93.50;;;;;;10433761;28;20226;-85
2023/05/19 06:57:27;;;;;;;5.50;4.27;;;15.70;92.00;;;;;;10457234;28;20257;-84
2023/05/19 07:02:30;;;;;;;7.60;3.97;;;15.90;93.40;;;;;;10422210;28;20194;-85
2023/05/19 07:07:34;;;;;;;7.57;4.20;;;16.10;93.20;;;;;;10445455;28;20249;-84
2023/05/19 07:12:37;;;;;;;9.27;4.00;;;16.40;92.90;;;;;;10452994;28;20238;-85
2023/05/19 07:17:41;;;;;;;5.73;4.00;;;16.50;91.40;;;;;;10441381;28;20213;-85
2023/05/19 07:22:45;;;;;;;9.70;4.50;;;16.60;91.20;;;;;;10444352;28;20198;-85
2023/05/19 07:27:47;;;;;;;7.77;4.83;;;16.50;90.00;;;;;;10444046;28;20194;-85
2023/05/19 07:32:50;;;;;;;7.00;4.90;;;16.40;91.60;;;;;;10432159;28;20226;-85
2023/05/19 07:37:53;;;;;;;6.97;4.30;;;16.30;90.60;;;;;;10462000;28;20205;-85
2023/05/19 07:42:55;;;;;;;4.93;3.80;;;16.40;90.30;;;;;;10445337;28;20313;-84
2023/05/19 07:47:57;;;;;;;7.90;4.70;;;16.40;90.70;;;;;;10426919;28;20226;-85
2023/05/19 07:53:01;;;;;;;4.80;4.00;;;16.50;91.40;;;;;;10422664;28;20229;-85
2023/05/19 07:58:03;;;;;;;8.33;4.07;;;16.60;92.80;;;;;;10457271;28;20205;-85
2023/05/19 08:03:06;;;;;;;7.17;4.00;;;16.80;91.50;;;;;;10429922;28;20245;-85
2023/05/19 08:08:10;;;;;;;6.70;4.60;;;16.80;90.30;;;;;;10388551;28;20195;-85
2023/05/19 08:13:12;;;;;;;7.93;4.90;;;16.70;91.50;;;;;;10410171;28;20225;-84
2023/05/19 08:18:15;;;;;;;5.53;4.53;;;16.60;92.60;;;;;;10455101;28;20201;-84
2023/05/19 08:23:19;;;;;;;5.37;3.77;;;16.60;92.50;;;;;;10468726;28;20206;-85
2023/05/19 08:28:21;;;;;;;7.00;4.93;;;16.60;92.30;;;;;;10442800;28;20198;-85
2023/05/19 08:33:23;;;;;;;5.00;4.50;;;16.60;91.40;;;;;;10442657;28;20244;-85
2023/05/19 08:38:27;;;;;;;6.53;4.07;;;16.60;93.10;;;;;;10452528;28;20233;-85
2023/05/19 08:43:29;;;;;;;6.03;3.70;;;16.70;92.80;;;;;;10428016;28;20293;-85
2023/05/19 08:48:34;;;;;;;4.67;3.53;;;16.80;92.00;;;;;;10445248;28;20195;-85
2023/05/19 08:53:42;;;;;;;8.67;4.97;;;16.80;91.50;;;;;;10410379;28;20737;-86
2023/05/19 08:58:46;;;;;;;3.90;3.60;;;16.80;91.50;;;;;;10457860;28;20202;-86
2023/05/19 09:03:49;;;;;;;4.43;3.83;;;16.80;91.70;;;;;;10413580;28;20688;-86
2023/05/19 09:08:52;;;;;;;4.20;3.77;;;16.80;90.10;;;;;;10388778;28;20217;-86
2023/05/19 09:13:54;;;;;;;4.20;3.80;;;16.80;90.50;;;;;;10453680;28;20253;-86
2023/05/19 09:18:59;;;;;;;5.23;3.60;;;16.90;91.40;;;;;;10423339;28;20218;-86
2023/05/19 09:24:06;;;;;;;4.17;3.73;;;17.00;91.30;;;;;;10411086;28;20218;-86
2023/05/19 09:29:12;;;;;;;7.20;3.97;;;17.00;89.90;;;;;;10420368;28;20197;-86
2023/05/19 09:34:15;;;;;;;8.47;4.17;;;17.00;91.10;;;;;;10413782;28;20225;-86
2023/05/19 09:39:19;;;;;;;5.37;4.00;;;17.00;90.50;;;;;;10442086;28;20281;-84
2023/05/19 09:44:22;;;;;;;7.17;4.60;;;17.10;92.00;;;;;;10493896;22;20308;-82
2023/05/19 09:49:28;;;;;;;5.03;4.57;;;17.10;91.70;;;;;;10416416;28;20250;-82
2023/05/19 09:54:33;;;;;;;4.27;3.87;;;17.20;92.00;;;;;;10465475;28;20222;-82
2023/05/19 09:59:37;;;;;;;6.43;4.37;;;17.30;90.10;;;;;;10457085;28;20691;-82
2023/05/19 10:04:40;;;;;;;5.90;3.43;;;17.40;87.20;;;;;;10424127;28;20224;-82
2023/05/19 10:09:44;;;;;;;5.37;4.40;;;17.50;90.30;;;;;;10454432;28;20612;-82
2023/05/19 10:14:48;;;;;;;4.13;3.73;;;17.60;89.10;;;;;;10435961;28;20708;-82
2023/05/19 10:19:53;;;;;;;5.03;4.00;;;17.60;89.70;;;;;;10415440;28;20435;-83
2023/05/19 10:24:56;;;;;;;5.33;4.13;;;17.50;86.80;;;;;;10408935;28;20305;-83
2023/05/19 10:30:09;;;;;;;6.20;3.80;;;17.30;90.10;;;;;;10435139;28;20194;-83
2023/05/19 10:35:36;;;;;;;4.67;3.80;;;17.20;90.40;;;;;;10399077;28;20221;-83
2023/05/19 10:40:51;;;;;;;4.77;3.90;;;17.20;91.20;;;;;;10435066;28;20193;-83
2023/05/19 10:45:54;;;;;;;6.90;3.87;;;17.20;91.80;;;;;;10418829;28;20229;-83
2023/05/19 10:50:56;;;;;;;6.50;3.87;;;17.30;91.20;;;;;;10451926;28;20205;-83
2023/05/19 10:56:02;;;;;;;4.87;3.67;;;17.20;89.20;;;;;;10426358;28;20241;-83
2023/05/19 11:01:08;;;;;;;4.07;3.70;;;17.20;89.90;;;;;;10448286;28;20198;-83
2023/05/19 11:06:21;;;;;;;4.40;3.80;;;17.10;90.80;;;;;;10467171;28;20780;-83
2023/05/19 11:11:25;;;;;;;4.07;3.73;;;17.10;91.00;;;;;;10446047;28;20646;-83
2023/05/19 11:16:29;;;;;;;4.70;3.97;;;17.10;91.10;;;;;;10429954;28;20245;-83
2023/05/19 11:21:49;;;;;;;4.03;3.60;;;17.10;92.60;;;;;;10447467;28;20228;-82
2023/05/19 11:26:54;;;;;;;9.73;4.50;;;17.20;93.10;;;;;;10439885;28;20218;-82
2023/05/19 11:31:57;;;;;;;5.80;4.60;;;17.20;90.80;;;;;;10403639;28;20276;-84
2023/05/19 11:36:59;;;;;;;4.53;4.10;;;17.20;90.50;;;;;;10389362;28;20215;-83
2023/05/19 11:42:02;;;;;;;4.73;3.63;;;17.00;92.20;;;;;;10393268;28;20253;-83
2023/05/19 11:47:06;;;;;;;4.13;3.50;;;17.00;93.70;;;;;;10365441;28;20858;-82
2023/05/19 11:52:08;;;;;;;4.43;3.87;;;17.10;90.30;;;;;;10401087;28;20210;-82
2023/05/19 11:57:12;;;;;;;5.43;4.67;;;17.10;92.40;;;;;;10397485;28;20313;-83
2023/05/19 12:02:17;;;;;;;5.83;4.30;;;17.10;91.20;;;;;;10409787;28;20222;-83
2023/05/19 12:07:22;;;;;;;5.97;3.57;;;17.00;90.90;;;;;;10406036;28;20685;-83
2023/05/19 12:12:26;;;;;;;5.43;4.00;;;17.00;91.90;;;;;;10439263;28;20206;-82
2023/05/19 12:17:28;;;;;;;4.17;3.70;;;17.00;91.50;;;;;;10422049;28;20268;-82
2023/05/19 12:22:30;;;;;;;5.73;4.27;;;16.90;90.50;;;;;;10403807;28;20564;-82
2023/05/19 12:27:37;;;;;;;4.10;3.80;;;16.90;90.00;;;;;;10439574;28;20230;-83
2023/05/19 12:32:39;;;;;;;6.50;4.20;;;17.00;89.40;;;;;;10372462;28;20235;-83
2023/05/19 12:37:42;;;;;;;4.87;4.13;;;17.10;89.70;;;;;;10381426;28;20250;-83
2023/05/19 12:42:47;;;;;;;6.27;4.27;;;17.20;90.80;;;;;;10360819;28;20794;-83
2023/05/19 12:47:49;;;;;;;4.53;4.10;;;17.30;92.00;;;;;;10382325;28;20226;-82
2023/05/19 12:52:52;;;;;;;6.23;4.07;;;17.30;89.70;;;;;;10394065;28;20203;-83
2023/05/19 12:57:56;;;;;;;6.53;4.50;;;17.40;90.50;;;;;;10362378;28;20225;-83
2023/05/19 13:03:01;;;;;;;4.77;4.10;;;17.40;92.30;;;;;;10361425;28;20408;-82
2023/05/19 13:08:06;;;;;;;4.27;3.50;;;17.30;90.90;;;;;;10375587;28;20200;-83
2023/05/19 13:13:10;;;;;;;4.57;3.70;;;17.20;90.30;;;;;;10369762;28;20222;-82
2023/05/19 13:18:13;;;;;;;8.10;4.53;;;17.20;91.50;;;;;;10395537;28;20678;-83
2023/05/19 13:23:16;;;;;;;7.80;4.40;;;17.20;90.20;;;;;;10377503;28;20686;-83
2023/05/19 13:28:19;;;;;;;6.43;4.37;;;17.30;89.60;;;;;;10397943;28;20194;-84
2023/05/19 13:33:22;;;;;;;4.90;4.23;;;17.30;88.80;;;;;;10397828;28;20289;-83
2023/05/19 13:38:25;;;;;;;4.17;3.70;;;17.30;91.00;;;;;;10445070;28;20281;-82
2023/05/19 13:43:28;;;;;;;7.67;4.40;;;17.30;91.20;;;;;;10456385;28;20769;-83
2023/05/19 13:48:30;;;;;;;6.47;4.30;;;17.20;91.70;;;;;;10438236;28;20251;-83
2023/05/19 13:53:33;;;;;;;4.57;4.17;;;17.10;91.50;;;;;;10422204;28;20275;-83
2023/05/19 13:58:38;;;;;;;7.30;4.17;;;17.00;92.40;;;;;;10435066;28;20206;-83
2023/05/19 14:03:40;;;;;;;9.50;5.40;;;17.00;91.60;;;;;;10435239;28;20250;-82
2023/05/19 14:08:42;;;;;;;8.40;4.37;;;17.10;91.40;;;;;;10393811;28;20211;-81
2023/05/19 14:13:47;;;;;;;8.13;4.70;;;17.10;90.40;;;;;;10384281;28;20226;-82
2023/05/19 14:18:50;;;;;;;5.43;4.10;;;17.20;90.70;;;;;;10386041;28;20192;-82
2023/05/19 14:23:52;;;;;;;4.10;3.80;;;17.20;90.40;;;;;;10394998;28;20277;-82
2023/05/19 14:28:56;;;;;;;4.63;4.07;;;17.40;90.10;;;;;;10378737;28;20213;-82
2023/05/19 14:34:00;;;;;;;6.10;4.17;;;17.50;91.10;;;;;;10359443;28;20233;-82
2023/05/19 14:39:02;;;;;;;6.33;4.37;;;17.50;90.90;;;;;;10390373;28;20249;-81
2023/05/19 14:44:05;;;;;;;5.87;4.03;;;17.60;91.10;;;;;;10412697;28;20222;-82
2023/05/19 14:49:08;;;;;;;6.87;4.60;;;17.60;90.40;;;;;;10405955;28;20260;-83
2023/05/19 14:54:10;;;;;;;6.20;4.57;;;17.50;92.60;;;;;;10428584;28;20218;-82
2023/05/19 14:59:13;;;;;;;4.23;3.93;;;17.50;90.70;;;;;;10365195;28;20245;-82
2023/05/19 15:04:15;;;;;;;6.20;4.50;;;17.40;91.40;;;;;;10374358;28;20303;-82
2023/05/19 15:09:19;;;;;;;3.90;3.50;;;17.40;91.00;;;;;;10444552;28;20189;-82
2023/05/19 15:14:23;;;;;;;5.73;4.27;;;17.30;92.40;;;;;;10411440;28;20272;-83
2023/05/19 15:19:25;;;;;;;4.80;4.00;;;17.20;92.00;;;;;;10359042;28;20197;-85
2023/05/19 15:24:27;;;;;;;5.33;4.10;;;17.20;91.20;;;;;;10395207;28;20714;-84
2023/05/19 15:29:30;;;;;;;4.93;3.80;;;17.20;90.60;;;;;;10378247;28;20202;-84
2023/05/19 15:34:33;;;;;;;4.43;3.63;;;17.10;90.90;;;;;;10378725;28;20332;-83
2023/05/19 15:39:35;;;;;;;4.70;3.90;;;17.10;93.20;;;;;;10371917;28;20190;-83
2023/05/19 15:44:38;;;;;;;4.20;3.77;;;17.20;91.90;;;;;;10406304;22;20278;-79
2023/05/19 15:49:40;;;;;;;7.13;6.53;;;17.20;91.30;;;;;;10552922;28;20778;-79
2023/05/19 15:54:43;;;;;;;6.40;5.03;;;17.20;92.20;;;;;;10578929;28;20240;-79
2023/05/19 15:59:46;;;;;;;4.23;3.80;;;17.20;93.80;;;;;;10556707;28;20192;-79
2023/05/19 16:04:48;;;;;;;5.23;4.10;;;17.30;94.00;;;;;;10544574;28;20212;-79
2023/05/19 16:09:50;;;;;;;8.17;4.80;;;17.30;93.20;;;;;;10552549;28;20191;-78
2023/05/19 16:14:54;;;;;;;4.40;3.80;;;17.30;93.10;;;;;;10578000;28;20692;-79
2023/05/19 16:19:56;;;;;;;4.13;3.73;;;17.20;93.40;;;;;;10571133;28;20679;-79
2023/05/19 16:24:58;;;;;;;5.87;4.20;;;17.20;93.10;;;;;;10576378;28;20577;-78
2023/05/19 16:30:02;;;;;;;4.30;3.97;;;17.20;92.70;;;;;;10547688;28;20253;-78
2023/05/19 16:35:05;;;;;;;5.03;3.70;;;17.20;92.10;;;;;;10546846;28;20224;-78
2023/05/19 16:40:08;;;;;;;4.63;4.23;;;17.30;91.70;;;;;;10552143;28;20200;-78
2023/05/19 16:45:11;;;;;;;5.30;4.80;;;17.20;92.90;;;;;;10564225;28;20586;-78
2023/05/19 16:50:14;;;;;;;5.20;4.70;;;17.20;93.60;;;;;;10568486;28;20207;-78
2023/05/19 16:55:18;;;;;;;5.40;4.90;;;17.20;93.90;;;;;;10586430;28;20216;-80
2023/05/19 17:00:22;;;;;;;4.40;4.00;;;17.20;92.70;;;;;;10583506;28;20854;-79
2023/05/19 17:05:24;;;;;;;4.33;3.93;;;17.10;94.80;;;;;;10548831;28;20572;-77
2023/05/19 17:10:26;;;;;;;4.50;4.10;;;17.10;93.20;;;;;;10544046;28;20245;-78
2023/05/19 17:15:31;;;;;;;5.27;4.67;;;17.00;91.20;;;;;;10576693;28;20584;-78
2023/05/19 17:20:33;;;;;;;4.93;4.33;;;17.00;91.40;;;;;;10572181;28;20196;-76
2023/05/19 17:25:35;;;;;;;5.93;4.40;;;16.90;90.80;;;;;;10545756;28;20227;-81
2023/05/19 17:30:40;;;;;;;4.30;3.90;;;16.90;92.40;;;;;;10550507;28;20684;-80
2023/05/19 17:35:42;;;;;;;4.87;4.47;;;16.80;93.20;;;;;;10538575;28;20245;-78
2023/05/19 17:40:44;;;;;;;3.30;3.00;;;16.70;94.10;;;;;;10540744;28;20219;-79
2023/05/19 17:45:47;;;;;;;4.20;3.90;;;16.70;94.90;;;;;;10576865;28;20727;-78
2023/05/19 17:50:49;;;;;;;4.03;3.70;;;16.60;93.80;;;;;;10552826;28;20683;-79
2023/05/19 17:55:53;;;;;;;6.73;4.10;;;16.50;93.30;;;;;;10575587;28;20251;-78
2023/05/19 18:00:57;;;;;;;4.97;4.33;;;16.50;94.50;;;;;;10585303;28;20188;-80
2023/05/19 18:05:59;;;;;;;4.87;4.47;;;16.40;94.50;;;;;;10554004;28;20219;-80
2023/05/19 18:11:02;;;;;;;4.40;4.00;;;16.40;95.40;;;;;;10546815;28;20192;-79
2023/05/19 18:16:06;;;;;;;4.10;3.80;;;16.30;96.40;;;;;;10577101;28;20243;-80
2023/05/19 18:21:12;;;;;;;5.63;3.90;;;16.30;95.70;;;;;;10554019;28;20206;-80
2023/05/19 18:26:15;;;;;;;4.80;4.40;;;16.20;96.00;;;;;;10563400;28;20239;-79
2023/05/19 18:31:18;;;;;;;4.73;4.20;;;16.10;96.80;;;;;;10556003;28;20228;-80
2023/05/19 18:36:20;;;;;;;6.43;4.47;;;16.10;95.60;;;;;;10566645;28;20251;-80
2023/05/19 18:41:22;;;;;;;4.60;4.03;;;16.10;94.70;;;;;;10545650;28;20239;-80
2023/05/19 18:46:26;;;;;;;5.53;5.00;;;16.00;95.20;;;;;;10545137;28;20250;-80
2023/05/19 18:51:28;;;;;;;5.03;4.60;;;15.90;95.00;;;;;;10550679;28;20192;-80
2023/05/19 18:56:40;;;;;;;5.63;5.10;;;15.90;95.10;;;;;;10559842;28;20219;-79
2023/05/19 19:01:44;;;;;;;4.70;4.40;;;15.70;95.70;;;;;;10528176;28;20224;-80
2023/05/19 19:06:50;;;;;;;5.60;5.20;;;15.70;95.40;;;;;;10570183;28;20211;-78
2023/05/19 19:11:52;;;;;;;6.40;4.97;;;15.60;95.40;;;;;;10515756;28;20272;-78
2023/05/19 19:16:55;;;;;;;10.90;5.40;;;15.40;96.10;;;;;;10573474;28;20562;-78
2023/05/19 19:21:57;;;;;;;5.10;4.80;;;15.30;96.00;;;;;;10556511;28;20195;-78
2023/05/19 19:27:02;;;;;;;5.03;4.60;;;15.30;95.60;;;;;;10544158;28;20213;-79
2023/05/19 19:32:07;;;;;;;5.53;4.70;;;15.20;96.60;;;;;;10564016;28;20201;-79
2023/05/19 19:37:09;;;;;;;5.30;4.90;;;15.20;96.60;;;;;;10542170;28;20227;-79
2023/05/19 19:42:15;;;;;;;5.27;4.60;;;15.20;96.70;;;;;;10548130;28;20204;-79
2023/05/19 19:47:27;;;;;;;5.13;4.73;;;15.20;96.50;;;;;;10488748;28;20220;-78
2023/05/19 19:52:31;;;;;;;4.60;4.20;;;15.20;96.30;;;;;;10504742;28;20189;-78
2023/05/19 19:57:36;;;;;;;5.63;5.13;;;15.20;96.50;;;;;;10504432;28;20216;-80
2023/05/19 20:02:40;;;;;;;5.77;4.90;;;15.20;97.10;;;;;;10499801;28;20218;-78
2023/05/19 20:07:44;;;;;;;6.20;5.60;;;15.20;97.00;;;;;;10504404;28;20212;-80
2023/05/19 20:12:50;;;;;;;5.43;4.93;;;15.10;96.90;;;;;;10484232;28;20235;-78
2023/05/19 20:17:59;;;;;;;5.40;4.97;;;15.20;97.20;;;;;;10544692;28;20265;-78
2023/05/19 20:23:07;;;;;;;6.43;4.80;;;15.20;96.80;;;;;;10485786;28;20630;-78
2023/05/19 20:28:12;;;;;;;5.60;5.10;;;15.10;97.50;;;;;;10549803;28;20223;-78
2023/05/19 20:33:19;;;;;;;5.40;4.90;;;15.10;97.70;;;;;;10525563;28;20212;-81
2023/05/19 20:38:21;;;;;;;5.30;4.30;;;15.10;97.40;;;;;;10548077;28;20222;-78
2023/05/19 20:43:27;;;;;;;5.53;4.70;;;15.10;97.10;;;;;;10525335;28;20199;-78
2023/05/19 20:48:35;;;;;;;4.97;4.50;;;15.20;97.30;;;;;;10514150;28;20231;-78
2023/05/19 20:53:42;;;;;;;5.87;5.37;;;15.20;97.40;;;;;;10525381;28;20688;-79
2023/05/19 20:58:47;;;;;;;5.07;4.57;;;15.20;97.90;;;;;;10534254;28;20225;-78
2023/05/19 21:03:51;;;;;;;6.00;5.40;;;15.20;97.70;;;;;;10511085;28;20231;-79
2023/05/19 21:09:02;;;;;;;5.43;4.93;;;15.20;98.30;;;;;;10511664;28;20221;-79
2023/05/19 21:14:06;;;;;;;5.50;5.10;;;15.20;97.30;;;;;;10519419;28;20894;-80
2023/05/19 21:19:12;;;;;;;4.97;4.67;;;15.20;97.70;;;;;;10519128;28;20275;-79
2023/05/19 21:24:17;;;;;;;5.50;5.00;;;15.20;97.60;;;;;;10518758;28;20213;-78
2023/05/19 21:29:22;;;;;;;5.43;4.93;;;15.20;97.30;;;;;;10515700;28;20211;-78
2023/05/19 21:34:28;;;;;;;5.40;4.90;;;15.20;97.60;;;;;;10517697;28;20770;-78
2023/05/19 21:40:03;;;;;;;5.27;4.83;;;15.20;97.70;;;;;;10520177;28;20207;-79
2023/05/19 21:45:06;;;;;;;5.80;5.27;;;15.20;98.00;;;;;;10491677;22;20221;-85
2023/05/19 21:50:14;;;;;;;4.60;4.30;;;15.10;97.40;;;;;;10507157;28;20544;-85
2023/05/19 21:55:16;;;;;;;5.20;4.90;;;15.10;97.40;;;;;;10506722;28;20258;-85
2023/05/19 22:00:18;;;;;;;6.27;4.10;;;15.00;98.00;;;;;;10504012;28;20247;-85
2023/05/19 22:05:22;;;;;;;5.00;4.60;;;15.00;97.30;;;;;;10498080;28;20216;-85
2023/05/19 22:10:24;;;;;;;7.00;5.57;;;14.90;97.40;;;;;;10500211;28;20295;-85
2023/05/19 22:15:26;;;;;;;5.80;5.03;;;14.80;97.60;;;;;;10524653;28;20212;-85
2023/05/19 22:20:30;;;;;;;5.63;5.10;;;14.70;98.10;;;;;;10520876;28;20284;-85
2023/05/19 22:25:32;;;;;;;6.00;5.50;;;14.60;97.60;;;;;;10544563;28;20432;-84
2023/05/19 22:30:35;;;;;;;7.83;4.80;;;14.50;97.70;;;;;;10531294;28;20192;-85
2023/05/19 22:35:38;;;;;;;6.33;5.50;;;14.50;97.40;;;;;;10585469;28;20634;-84
2023/05/19 22:40:40;;;;;;;5.90;5.40;;;14.40;97.90;;;;;;10516769;28;20214;-85
2023/05/19 22:45:42;;;;;;;6.10;5.60;;;14.30;97.90;;;;;;10571422;28;20269;-84
2023/05/19 22:50:46;;;;;;;5.93;5.13;;;14.30;97.80;;;;;;10561840;28;20250;-85
2023/05/19 22:55:48;;;;;;;5.80;5.40;;;14.20;97.50;;;;;;10560137;28;20266;-85
2023/05/19 23:00:50;;;;;;;6.13;5.47;;;14.10;98.30;;;;;;10540808;28;20199;-85
2023/05/19 23:05:53;;;;;;;5.10;4.80;;;14.10;98.30;;;;;;10539492;28;20311;-85
2023/05/19 23:11:00;;;;;;;6.00;5.50;;;14.10;98.20;;;;;;10533636;28;20201;-85
2023/05/19 23:16:03;;;;;;;5.57;5.07;;;14.10;98.30;;;;;;10550600;28;20220;-85
2023/05/19 23:21:06;;;;;;;4.90;4.60;;;14.10;98.10;;;;;;10544371;28;20196;-85
2023/05/19 23:26:08;;;;;;;5.40;4.90;;;14.10;97.80;;;;;;10540692;28;20234;-85
2023/05/19 23:31:11;;;;;;;5.13;4.47;;;14.10;98.20;;;;;;10544852;28;20626;-85
2023/05/19 23:36:14;;;;;;;4.97;4.57;;;14.10;98.20;;;;;;10523082;28;20295;-85
2023/05/19 23:41:16;;;;;;;5.67;5.17;;;14.10;98.90;;;;;;10545690;28;20601;-85
2023/05/19 23:46:18;;;;;;;5.80;5.30;;;14.10;98.40;;;;;;10525344;28;20734;-85
2023/05/19 23:51:22;;;;;;;5.30;4.80;;;14.10;98.40;;;;;;10532831;28;20204;-85
2023/05/19 23:56:24;;;;;;;7.10;5.00;;;14.10;98.50;;;;;;10541471;28;20235;-85
